Mehtap Bayraktar — TCPB — position and weather

sailwx.info

Track history (hours):
 
Tides and Currents Weather Stations Pressure Air Temp Water Temp Dewpoint Dewpoint Depression Visibility Wind Speed Wind Dir Waves Ship Positions

Mehtap Bayraktar

Last reported at 2015-Apr-17 18:33 UTC. Time now 2015-Apr-18 08:53 UTC.
Position N 37°16' E 009°55'.

Length 114 m; draft 5.5 m.

Type: Ship (hazmat cat A). MMSI: 271000578.

Date/timePositionNaut miles runAvg speedWind from/ knotsBaromVisibWave heightAir tempDewpointWater temp
2015-Apr-17 18:33N 37°16' E 009°55'2 1.9
2015-Apr-17 17:33N 37°17' E 009°57'86 6.1
2015-Apr-17 03:24N 37°12' E 011°44'1312.4
2015-Apr-17 02:21N 37°05' E 011°58'1012.4
2015-Apr-17 01:32N 36°59' E 012°08'1312.8
2015-Apr-17 00:33N 36°52' E 012°21'10 9.8
2015-Apr-16 23:33N 36°47' E 012°31'1312.9
2015-Apr-16 22:33N 36°40' E 012°45'1313.3
2015-Apr-16 21:33N 36°32' E 012°59'1313.4
2015-Apr-16 20:33N 36°25' E 013°12'1413.9
2015-Apr-16 19:33N 36°17' E 013°27'1413.8
2015-Apr-16 18:33N 36°09' E 013°41'1413.6
2015-Apr-16 17:33N 36°01' E 013°54'1313.2
2015-Apr-16 16:34N 35°54' E 014°08'20 6.7
2015-Apr-16 13:32N 35°49' E 014°32'0 0.0
2015-Apr-16 12:17N 35°49' E 014°32'0 0.0
2015-Apr-16 10:32N 35°49' E 014°32'0 0.0
2015-Apr-16 09:20N 35°49' E 014°32'0 0.0
2015-Apr-16 07:32N 35°49' E 014°32'0 0.0
2015-Apr-16 06:17N 35°49' E 014°32'0 0.0
2015-Apr-16 05:32N 35°49' E 014°32'1 0.5
2015-Apr-16 04:33N 35°49' E 014°33'9 8.6
2015-Apr-16 03:33N 35°52' E 014°43'6 6.1
2015-Apr-16 02:33N 35°56' E 014°49'0 0.0
2015-Apr-16 01:33N 35°56' E 014°49'0 0.0
2015-Apr-16 00:33N 35°56' E 014°49'0 0.0
2015-Apr-15 23:30N 35°56' E 014°49'0 0.0
2015-Apr-15 22:33N 35°56' E 014°49'0 0.0
2015-Apr-15 21:30N 35°56' E 014°49'0 0.0
2015-Apr-15 20:33N 35°56' E 014°49'0 0.0
2015-Apr-15 19:33N 35°56' E 014°49'0 0.0
2015-Apr-15 18:33N 35°56' E 014°49'0 0.0
2015-Apr-15 17:33N 35°56' E 014°49'0 0.1
2015-Apr-15 16:27N 35°56' E 014°48'0 0.0
2015-Apr-15 15:33N 35°56' E 014°48'0 0.0
2015-Apr-15 14:33N 35°56' E 014°48'0 0.0
2015-Apr-15 13:33N 35°56' E 014°48'0 0.0
2015-Apr-15 12:30N 35°56' E 014°48'0 0.0
2015-Apr-15 11:09N 35°56' E 014°48'0 0.0
2015-Apr-15 10:33N 35°56' E 014°48'0 0.0
2015-Apr-15 09:33N 35°56' E 014°48'0 0.0
2015-Apr-15 08:33N 35°56' E 014°48'0 0.0
2015-Apr-15 07:33N 35°56' E 014°48'0 0.0
2015-Apr-15 06:30N 35°56' E 014°49'0 0.0
2015-Apr-15 05:30N 35°56' E 014°49'0 0.0
2015-Apr-15 04:33N 35°56' E 014°49'0 0.0
2015-Apr-15 03:33N 35°56' E 014°49'0 0.0
2015-Apr-15 02:30N 35°56' E 014°49'0 0.0
2015-Apr-15 01:18N 35°56' E 014°49'0 0.0
2015-Apr-15 00:33N 35°56' E 014°49'0 0.0
2015-Apr-14 23:30N 35°56' E 014°49'0 0.0
2015-Apr-14 22:33N 35°56' E 014°49'0 0.0
2015-Apr-14 21:33N 35°56' E 014°49'0 0.0
2015-Apr-14 20:33N 35°56' E 014°49'0 0.1
2015-Apr-14 19:33N 35°56' E 014°49'0 0.0
2015-Apr-14 18:33N 35°56' E 014°48'0 0.0
2015-Apr-14 17:33N 35°56' E 014°48'0 0.0
2015-Apr-14 16:33N 35°56' E 014°48'2 2.5
2015-Apr-14 15:33N 35°58' E 014°47'1 1.2
2015-Apr-14 14:33N 35°58' E 014°46'3 3.3
2015-Apr-14 13:33N 35°57' E 014°50'6 6.0
2015-Apr-14 12:33N 35°51' E 014°48'1412.1
2015-Apr-14 11:26N 35°45' E 014°33'1112.2
2015-Apr-14 10:33N 35°47' E 014°20'1312.4
2015-Apr-14 09:32N 35°54' E 014°07'1212.5
2015-Apr-14 08:33N 36°00' E 013°54'1313.0
2015-Apr-14 07:33N 36°08' E 013°41'1313.0
2015-Apr-14 06:33N 36°15' E 013°27'1613.0
2015-Apr-14 05:17N 36°23' E 013°09'1112.3
2015-Apr-14 04:24N 36°29' E 012°58'265 6.5
2015-Apr-12 11:22N 37°17' E 007°32'214 4.5
2015-Apr-10 11:32N 36°46' E 003°07'0 0.0
2015-Apr-10 09:32N 36°46' E 003°07'28 1.3
2015-Apr-09 11:05N 36°52' E 002°33'610.3
2015-Apr-09 10:32N 36°51' E 002°26'9 9.3
2015-Apr-09 09:34N 36°49' E 002°15'11 9.3
2015-Apr-09 08:23N 36°46' E 002°01'7610.9
2015-Apr-09 01:25N 36°23' E 000°31'910.3
2015-Apr-09 00:30N 36°20' E 000°21'  
Track history (hours):
 
Tides and Currents Weather Stations Pressure Air Temp Water Temp Dewpoint Dewpoint Depression Visibility Wind Speed Wind Dir Waves Ship Positions

Mehtap Bayraktar

Last reported at 2015-Apr-17 18:33 UTC. Time now 2015-Apr-18 08:53 UTC.
Position N 37°16' E 009°55'.

Length 114 m; draft 5.5 m.

Type: Ship (hazmat cat A). MMSI: 271000578.

Date/timePositionNaut miles runAvg speedWind from/ knotsBaromVisibWave heightAir tempDewpointWater temp
2015-Apr-17 18:33N 37°16' E 009°55'2 1.9
2015-Apr-17 17:33N 37°17' E 009°57'86 6.1
2015-Apr-17 03:24N 37°12' E 011°44'1312.4
2015-Apr-17 02:21N 37°05' E 011°58'1012.4
2015-Apr-17 01:32N 36°59' E 012°08'1312.8
2015-Apr-17 00:33N 36°52' E 012°21'10 9.8
2015-Apr-16 23:33N 36°47' E 012°31'1312.9
2015-Apr-16 22:33N 36°40' E 012°45'1313.3
2015-Apr-16 21:33N 36°32' E 012°59'1313.4
2015-Apr-16 20:33N 36°25' E 013°12'1413.9
2015-Apr-16 19:33N 36°17' E 013°27'1413.8
2015-Apr-16 18:33N 36°09' E 013°41'1413.6
2015-Apr-16 17:33N 36°01' E 013°54'1313.2
2015-Apr-16 16:34N 35°54' E 014°08'20 6.7
2015-Apr-16 13:32N 35°49' E 014°32'0 0.0
2015-Apr-16 12:17N 35°49' E 014°32'0 0.0
2015-Apr-16 10:32N 35°49' E 014°32'0 0.0
2015-Apr-16 09:20N 35°49' E 014°32'0 0.0
2015-Apr-16 07:32N 35°49' E 014°32'0 0.0
2015-Apr-16 06:17N 35°49' E 014°32'0 0.0
2015-Apr-16 05:32N 35°49' E 014°32'1 0.5
2015-Apr-16 04:33N 35°49' E 014°33'9 8.6
2015-Apr-16 03:33N 35°52' E 014°43'6 6.1
2015-Apr-16 02:33N 35°56' E 014°49'0 0.0
2015-Apr-16 01:33N 35°56' E 014°49'0 0.0
2015-Apr-16 00:33N 35°56' E 014°49'0 0.0
2015-Apr-15 23:30N 35°56' E 014°49'0 0.0
2015-Apr-15 22:33N 35°56' E 014°49'0 0.0
2015-Apr-15 21:30N 35°56' E 014°49'0 0.0
2015-Apr-15 20:33N 35°56' E 014°49'0 0.0
2015-Apr-15 19:33N 35°56' E 014°49'0 0.0
2015-Apr-15 18:33N 35°56' E 014°49'0 0.0
2015-Apr-15 17:33N 35°56' E 014°49'0 0.1
2015-Apr-15 16:27N 35°56' E 014°48'0 0.0
2015-Apr-15 15:33N 35°56' E 014°48'0 0.0
2015-Apr-15 14:33N 35°56' E 014°48'0 0.0
2015-Apr-15 13:33N 35°56' E 014°48'0 0.0
2015-Apr-15 12:30N 35°56' E 014°48'0 0.0
2015-Apr-15 11:09N 35°56' E 014°48'0 0.0
2015-Apr-15 10:33N 35°56' E 014°48'0 0.0
2015-Apr-15 09:33N 35°56' E 014°48'0 0.0
2015-Apr-15 08:33N 35°56' E 014°48'0 0.0
2015-Apr-15 07:33N 35°56' E 014°48'0 0.0
2015-Apr-15 06:30N 35°56' E 014°49'0 0.0
2015-Apr-15 05:30N 35°56' E 014°49'0 0.0
2015-Apr-15 04:33N 35°56' E 014°49'0 0.0
2015-Apr-15 03:33N 35°56' E 014°49'0 0.0
2015-Apr-15 02:30N 35°56' E 014°49'0 0.0
2015-Apr-15 01:18N 35°56' E 014°49'0 0.0
2015-Apr-15 00:33N 35°56' E 014°49'0 0.0
2015-Apr-14 23:30N 35°56' E 014°49'0 0.0
2015-Apr-14 22:33N 35°56' E 014°49'0 0.0
2015-Apr-14 21:33N 35°56' E 014°49'0 0.0
2015-Apr-14 20:33N 35°56' E 014°49'0 0.1
2015-Apr-14 19:33N 35°56' E 014°49'0 0.0
2015-Apr-14 18:33N 35°56' E 014°48'0 0.0
2015-Apr-14 17:33N 35°56' E 014°48'0 0.0
2015-Apr-14 16:33N 35°56' E 014°48'2 2.5
2015-Apr-14 15:33N 35°58' E 014°47'1 1.2
2015-Apr-14 14:33N 35°58' E 014°46'3 3.3
2015-Apr-14 13:33N 35°57' E 014°50'6 6.0
2015-Apr-14 12:33N 35°51' E 014°48'1412.1
2015-Apr-14 11:26N 35°45' E 014°33'1112.2
2015-Apr-14 10:33N 35°47' E 014°20'1312.4
2015-Apr-14 09:32N 35°54' E 014°07'1212.5
2015-Apr-14 08:33N 36°00' E 013°54'1313.0
2015-Apr-14 07:33N 36°08' E 013°41'1313.0
2015-Apr-14 06:33N 36°15' E 013°27'1613.0
2015-Apr-14 05:17N 36°23' E 013°09'1112.3
2015-Apr-14 04:24N 36°29' E 012°58'265 6.5
2015-Apr-12 11:22N 37°17' E 007°32'214 4.5
2015-Apr-10 11:32N 36°46' E 003°07'0 0.0
2015-Apr-10 09:32N 36°46' E 003°07'28 1.3
2015-Apr-09 11:05N 36°52' E 002°33'610.3
2015-Apr-09 10:32N 36°51' E 002°26'9 9.3
2015-Apr-09 09:34N 36°49' E 002°15'11 9.3
2015-Apr-09 08:23N 36°46' E 002°01'7610.9
2015-Apr-09 01:25N 36°23' E 000°31'910.3
2015-Apr-09 00:30N 36°20' E 000°21'  

Dump ship's entire track history